SHMÚ vydal meteorologické výstrahy na Nízke teplotySnehové jazyky a záveje Zobraziť výstrahy

Smogová situácia PM10 - Upozornenie - Jelšava a okolie » Zobraziť

METAR

Letisková meteorologická správa METAR

Meteorologické informácie z ďalších profesionálnych meteorologických staníc SHMÚ zobrazené v tvare zodpovedajúcom pravidlám kódovania správ METAR sú uvedené v položke „METSYN

Informácie o správe METAR

18.01.2019 - 16:30 UTC

METAR LZIB 181630Z 33013KT CAVOK 02/M06 Q1019 NOSIG=
METAR LZKZ 181630Z 09003KT CAVOK 01/M01 Q1015 NOSIG=
METAR LZPP 181630Z 33008KT 9999 FEW040 M01/M06 Q1018=
METAR LZSL 181630Z 02003KT 280V090 9999 FEW056 M00/M06 Q1016=
METAR LZTT 181630Z 24009KT 9999 FEW020 M03/M06 Q1013 NOSIG=
METAR LZZI 181630Z 15003KT 090V210 9999 BKN053 M01/M03 Q1017=

18.01.2019 - 16:00 UTC

METAR LZIB 181600Z 33012KT 9999 FEW037 SCT051 02/M06 Q1018 NOSIG=
METAR LZKZ 181600Z 04007KT 9999 FEW044 BKN050 01/M00 Q1014 NOSIG=
METAR LZPP 181600Z 34007KT 9999 FEW031 M00/M05 Q1018=
METAR LZSL 181600Z 29003KT 220V330 9999 FEW056 M00/M06 Q1016=
METAR LZTT 181600Z 26008KT 9999 FEW016 SCT033 M03/M06 Q1013 NOSIG=
METAR LZZI 181600Z 32003KT 230V350 9999 SCT044 BKN051 M01/M02 Q1017=

18.01.2019 - 16:00 UTC

METAR LZMC 181600Z 33006KT CAVOK 01/M06 Q1019=
METAR LZPW 181600Z 00000KT 4000 BR BKN003 M01/M01
Q1014=

skok na menu ↑


skok na začiatok stránky ↑